Hlavní strana
METAR-TAF:

METAR-TAF

Letiště :

Letiště Ference Liszta Budapešť

Budapešť, Maďarsko

zeměpisná šířka: 47-26N, zeměpisná délka: 019-16E, výška: 151 m

Aktuální stav počasí

Zpráva byla vytvořena před 11 minutami, v 07:00 UTC
Severoseverozápadní vítr 4 kt, proměnlivý mezi západoseverozápadním a severním
Teplota 21°C
Vlhkost vzduchu 94%
Tlak 1015 hPa
Viditelnost 10 km a více
Skoro jasno ve výšce 1200 ft
Oblačno až skoro zataženo ve výšce 8400 ft

METAR: LHBP 150700Z 33004KT 300V360 9999 FEW012 BKN084 21/20 Q1015 NOSIG

Čas: 09:11 (07:11 UTC)

Předpověď počasí

Zpráva byla vytvořena před 1 hodinou a 56 minutami, v 05:15 UTC
Předpověď platná od 15 v 06 UTC do 16 v 06 UTC
vítr z různých směrů 3 kt
Viditelnost 10 km a více
Žádná oblačnost pod 1500 m, nevyskytují se cumulonimby.
Změna
od 15 v 08 UTC do 15 v 10 UTC
Severní vítr 7 kt

TAF: LHBP 150515Z 1506/1606 VRB03KT CAVOK BECMG 1508/1510 01007KT

Stav a předpovědi počasí z více než 4 000 letišť (zprávy METAR a TAF).

Červené a žluté tečky na mapě představují dostupné meteorologické stanice.

Když kurzor umístíte na tečku, zobrazí se název stanice.

Pak kliknutím zobrazíte stav a předpověď počasí.

Chcete-li změnit mapu, kliknutím na zelené tlačítko se znaménkem +mapu přiblížíte, kliknutím na zelené tlačítko se znaménkem – mapu oddálíte a kliknutím na zelené šipky přejdete na sousední mapy.


METAR-TAF: